sensor_id;sensor_type;location;lat;lon;timestamp;P1;durP1;ratioP1;P2;durP2;ratioP2
80209;SDS011;69529;37.974;23.708;2023-04-25T00:00:02;6.28;;;4.80;;
80209;SDS011;69529;37.974;23.708;2023-04-25T00:02:32;6.03;;;4.70;;
80209;SDS011;69529;37.974;23.708;2023-04-25T00:05:01;7.17;;;4.53;;
80209;SDS011;69529;37.974;23.708;2023-04-25T00:07:29;5.72;;;4.87;;
80209;SDS011;69529;37.974;23.708;2023-04-25T00:09:58;6.00;;;4.70;;
80209;SDS011;69529;37.974;23.708;2023-04-25T00:12:26;5.60;;;4.45;;
80209;SDS011;69529;37.974;23.708;2023-04-25T00:14:54;6.17;;;4.78;;
80209;SDS011;69529;37.974;23.708;2023-04-25T00:17:25;5.55;;;4.58;;
80209;SDS011;69529;37.974;23.708;2023-04-25T00:19:53;6.12;;;4.80;;
80209;SDS011;69529;37.974;23.708;2023-04-25T00:22:21;5.15;;;4.22;;
80209;SDS011;69529;37.974;23.708;2023-04-25T00:24:49;6.70;;;4.62;;
80209;SDS011;69529;37.974;23.708;2023-04-25T00:27:19;5.20;;;4.70;;
80209;SDS011;69529;37.974;23.708;2023-04-25T00:29:46;5.22;;;4.72;;
80209;SDS011;69529;37.974;23.708;2023-04-25T00:32:14;6.12;;;4.60;;
80209;SDS011;69529;37.974;23.708;2023-04-25T00:34:41;6.08;;;5.00;;
80209;SDS011;69529;37.974;23.708;2023-04-25T00:37:09;7.08;;;4.62;;
80209;SDS011;69529;37.974;23.708;2023-04-25T00:39:37;4.97;;;4.40;;
80209;SDS011;69529;37.974;23.708;2023-04-25T00:42:05;6.67;;;4.72;;
80209;SDS011;69529;37.974;23.708;2023-04-25T00:44:33;7.42;;;4.53;;
80209;SDS011;69529;37.974;23.708;2023-04-25T00:47:03;5.08;;;4.50;;
80209;SDS011;69529;37.974;23.708;2023-04-25T00:49:32;5.40;;;4.30;;
80209;SDS011;69529;37.974;23.708;2023-04-25T00:52:00;4.65;;;4.08;;
80209;SDS011;69529;37.974;23.708;2023-04-25T00:54:27;4.83;;;4.30;;
80209;SDS011;69529;37.974;23.708;2023-04-25T00:56:56;5.00;;;4.50;;
80209;SDS011;69529;37.974;23.708;2023-04-25T00:59:24;5.97;;;4.53;;
80209;SDS011;69529;37.974;23.708;2023-04-25T01:01:53;4.85;;;4.10;;
80209;SDS011;69529;37.974;23.708;2023-04-25T01:04:21;5.28;;;4.28;;
80209;SDS011;69529;37.974;23.708;2023-04-25T01:06:49;5.17;;;4.65;;
80209;SDS011;69529;37.974;23.708;2023-04-25T01:09:17;6.00;;;4.42;;
80209;SDS011;69529;37.974;23.708;2023-04-25T01:11:46;5.05;;;4.30;;
80209;SDS011;69529;37.974;23.708;2023-04-25T01:14:14;5.80;;;4.70;;
80209;SDS011;69529;37.974;23.708;2023-04-25T01:16:41;5.50;;;4.35;;
80209;SDS011;69529;37.974;23.708;2023-04-25T01:19:10;5.33;;;4.80;;
80209;SDS011;69529;37.974;23.708;2023-04-25T01:21:38;5.87;;;4.37;;
80209;SDS011;69529;37.974;23.708;2023-04-25T01:24:06;4.97;;;4.35;;
80209;SDS011;69529;37.974;23.708;2023-04-25T01:26:34;4.83;;;4.37;;
80209;SDS011;69529;37.974;23.708;2023-04-25T01:29:03;5.42;;;4.20;;
80209;SDS011;69529;37.974;23.708;2023-04-25T01:31:32;4.90;;;4.50;;
80209;SDS011;69529;37.974;23.708;2023-04-25T01:34:01;5.40;;;4.50;;
80209;SDS011;69529;37.974;23.708;2023-04-25T01:36:28;7.15;;;4.53;;
80209;SDS011;69529;37.974;23.708;2023-04-25T01:38:57;5.85;;;4.47;;
80209;SDS011;69529;37.974;23.708;2023-04-25T01:41:24;5.25;;;4.20;;
80209;SDS011;69529;37.974;23.708;2023-04-25T01:43:53;4.50;;;4.10;;
80209;SDS011;69529;37.974;23.708;2023-04-25T01:46:20;5.72;;;4.40;;
80209;SDS011;69529;37.974;23.708;2023-04-25T01:48:48;5.03;;;4.20;;
80209;SDS011;69529;37.974;23.708;2023-04-25T01:51:16;4.78;;;4.30;;
80209;SDS011;69529;37.974;23.708;2023-04-25T01:53:44;4.80;;;4.15;;
80209;SDS011;69529;37.974;23.708;2023-04-25T01:56:12;5.40;;;4.12;;
80209;SDS011;69529;37.974;23.708;2023-04-25T01:58:40;4.90;;;4.17;;
80209;SDS011;69529;37.974;23.708;2023-04-25T02:01:07;4.53;;;4.08;;
80209;SDS011;69529;37.974;23.708;2023-04-25T02:03:35;4.33;;;3.87;;
80209;SDS011;69529;37.974;23.708;2023-04-25T02:06:03;4.17;;;3.80;;
80209;SDS011;69529;37.974;23.708;2023-04-25T02:08:31;4.35;;;3.77;;
80209;SDS011;69529;37.974;23.708;2023-04-25T02:10:59;4.35;;;3.95;;
80209;SDS011;69529;37.974;23.708;2023-04-25T02:13:28;4.28;;;3.92;;
80209;SDS011;69529;37.974;23.708;2023-04-25T02:15:56;4.47;;;4.08;;
80209;SDS011;69529;37.974;23.708;2023-04-25T02:18:24;5.85;;;4.25;;
80209;SDS011;69529;37.974;23.708;2023-04-25T02:20:52;5.50;;;4.03;;
80209;SDS011;69529;37.974;23.708;2023-04-25T02:23:19;5.22;;;4.00;;
80209;SDS011;69529;37.974;23.708;2023-04-25T02:25:47;7.28;;;4.30;;
80209;SDS011;69529;37.974;23.708;2023-04-25T02:28:15;5.58;;;4.00;;
80209;SDS011;69529;37.974;23.708;2023-04-25T02:30:43;6.00;;;4.17;;
80209;SDS011;69529;37.974;23.708;2023-04-25T02:33:11;4.80;;;4.30;;
80209;SDS011;69529;37.974;23.708;2023-04-25T02:35:38;5.72;;;4.15;;
80209;SDS011;69529;37.974;23.708;2023-04-25T02:38:06;6.08;;;4.05;;
80209;SDS011;69529;37.974;23.708;2023-04-25T02:40:34;5.83;;;3.90;;
80209;SDS011;69529;37.974;23.708;2023-04-25T02:43:01;8.90;;;4.40;;
80209;SDS011;69529;37.974;23.708;2023-04-25T02:45:29;4.45;;;4.08;;
80209;SDS011;69529;37.974;23.708;2023-04-25T02:47:57;5.90;;;3.52;;
80209;SDS011;69529;37.974;23.708;2023-04-25T02:50:26;7.10;;;4.10;;
80209;SDS011;69529;37.974;23.708;2023-04-25T02:52:53;5.05;;;4.12;;
80209;SDS011;69529;37.974;23.708;2023-04-25T02:55:21;4.75;;;4.10;;
80209;SDS011;69529;37.974;23.708;2023-04-25T02:57:49;4.87;;;4.30;;
80209;SDS011;69529;37.974;23.708;2023-04-25T03:00:16;5.33;;;3.92;;
80209;SDS011;69529;37.974;23.708;2023-04-25T03:02:44;5.17;;;3.87;;
80209;SDS011;69529;37.974;23.708;2023-04-25T03:05:12;5.47;;;3.90;;
80209;SDS011;69529;37.974;23.708;2023-04-25T03:07:39;6.97;;;3.90;;
80209;SDS011;69529;37.974;23.708;2023-04-25T03:10:09;5.55;;;4.30;;
80209;SDS011;69529;37.974;23.708;2023-04-25T03:12:38;7.10;;;4.58;;
80209;SDS011;69529;37.974;23.708;2023-04-25T03:15:06;5.28;;;3.95;;
80209;SDS011;69529;37.974;23.708;2023-04-25T03:17:34;6.83;;;4.10;;
80209;SDS011;69529;37.974;23.708;2023-04-25T03:20:01;5.65;;;3.90;;
80209;SDS011;69529;37.974;23.708;2023-04-25T03:22:29;6.17;;;4.08;;
80209;SDS011;69529;37.974;23.708;2023-04-25T03:24:57;6.05;;;4.15;;
80209;SDS011;69529;37.974;23.708;2023-04-25T03:27:25;4.87;;;4.12;;
80209;SDS011;69529;37.974;23.708;2023-04-25T03:29:53;8.18;;;4.40;;
80209;SDS011;69529;37.974;23.708;2023-04-25T03:32:20;4.78;;;4.10;;
80209;SDS011;69529;37.974;23.708;2023-04-25T03:34:48;6.92;;;4.40;;
80209;SDS011;69529;37.974;23.708;2023-04-25T03:37:15;6.40;;;3.72;;
80209;SDS011;69529;37.974;23.708;2023-04-25T03:39:43;7.15;;;4.30;;
80209;SDS011;69529;37.974;23.708;2023-04-25T03:42:11;7.25;;;4.15;;
80209;SDS011;69529;37.974;23.708;2023-04-25T03:44:38;4.78;;;3.95;;
80209;SDS011;69529;37.974;23.708;2023-04-25T03:47:06;5.03;;;3.98;;
80209;SDS011;69529;37.974;23.708;2023-04-25T03:49:34;4.55;;;4.10;;
80209;SDS011;69529;37.974;23.708;2023-04-25T03:52:02;7.35;;;4.30;;
80209;SDS011;69529;37.974;23.708;2023-04-25T03:54:30;9.68;;;4.47;;
80209;SDS011;69529;37.974;23.708;2023-04-25T03:56:58;8.08;;;4.53;;
80209;SDS011;69529;37.974;23.708;2023-04-25T03:59:25;6.95;;;4.58;;
80209;SDS011;69529;37.974;23.708;2023-04-25T04:01:53;10.15;;;4.67;;
80209;SDS011;69529;37.974;23.708;2023-04-25T04:04:21;5.67;;;4.12;;
80209;SDS011;69529;37.974;23.708;2023-04-25T04:06:49;8.25;;;4.30;;
80209;SDS011;69529;37.974;23.708;2023-04-25T04:09:18;9.60;;;4.65;;
80209;SDS011;69529;37.974;23.708;2023-04-25T04:11:46;8.95;;;4.37;;
80209;SDS011;69529;37.974;23.708;2023-04-25T04:14:14;9.03;;;4.97;;
80209;SDS011;69529;37.974;23.708;2023-04-25T04:16:41;7.35;;;4.30;;
80209;SDS011;69529;37.974;23.708;2023-04-25T04:19:09;40.58;;;6.00;;
80209;SDS011;69529;37.974;23.708;2023-04-25T04:21:36;27.22;;;5.05;;
80209;SDS011;69529;37.974;23.708;2023-04-25T04:24:04;29.63;;;5.87;;
80209;SDS011;69529;37.974;23.708;2023-04-25T04:26:32;16.23;;;4.58;;
80209;SDS011;69529;37.974;23.708;2023-04-25T04:29:00;27.75;;;4.62;;
80209;SDS011;69529;37.974;23.708;2023-04-25T04:31:28;18.98;;;4.80;;
80209;SDS011;69529;37.974;23.708;2023-04-25T04:33:55;17.10;;;5.05;;
80209;SDS011;69529;37.974;23.708;2023-04-25T04:36:23;18.60;;;4.92;;
80209;SDS011;69529;37.974;23.708;2023-04-25T04:38:52;13.72;;;4.83;;
80209;SDS011;69529;37.974;23.708;2023-04-25T04:41:19;12.35;;;4.33;;
80209;SDS011;69529;37.974;23.708;2023-04-25T04:43:47;12.60;;;5.15;;
80209;SDS011;69529;37.974;23.708;2023-04-25T04:46:15;12.03;;;4.67;;
80209;SDS011;69529;37.974;23.708;2023-04-25T04:48:44;10.82;;;4.45;;
80209;SDS011;69529;37.974;23.708;2023-04-25T04:51:11;8.05;;;4.28;;
80209;SDS011;69529;37.974;23.708;2023-04-25T04:53:39;10.55;;;4.35;;
80209;SDS011;69529;37.974;23.708;2023-04-25T04:56:07;8.50;;;4.30;;
80209;SDS011;69529;37.974;23.708;2023-04-25T04:58:34;11.60;;;4.55;;
80209;SDS011;69529;37.974;23.708;2023-04-25T05:01:03;12.80;;;4.30;;
80209;SDS011;69529;37.974;23.708;2023-04-25T05:03:30;7.25;;;3.70;;
80209;SDS011;69529;37.974;23.708;2023-04-25T05:05:58;9.68;;;4.50;;
80209;SDS011;69529;37.974;23.708;2023-04-25T05:08:26;8.88;;;4.25;;
80209;SDS011;69529;37.974;23.708;2023-04-25T05:10:53;11.20;;;4.47;;
80209;SDS011;69529;37.974;23.708;2023-04-25T05:13:21;11.75;;;5.33;;
80209;SDS011;69529;37.974;23.708;2023-04-25T05:15:49;9.85;;;5.10;;
80209;SDS011;69529;37.974;23.708;2023-04-25T05:18:16;6.65;;;5.35;;
80209;SDS011;69529;37.974;23.708;2023-04-25T05:20:44;10.40;;;7.05;;
80209;SDS011;69529;37.974;23.708;2023-04-25T05:23:12;12.30;;;6.60;;
80209;SDS011;69529;37.974;23.708;2023-04-25T05:25:39;8.80;;;5.75;;
80209;SDS011;69529;37.974;23.708;2023-04-25T05:28:07;9.48;;;5.12;;
80209;SDS011;69529;37.974;23.708;2023-04-25T05:30:34;11.65;;;6.15;;
80209;SDS011;69529;37.974;23.708;2023-04-25T05:33:02;9.15;;;5.70;;
80209;SDS011;69529;37.974;23.708;2023-04-25T05:35:30;9.20;;;5.37;;
80209;SDS011;69529;37.974;23.708;2023-04-25T05:37:58;6.70;;;4.50;;
80209;SDS011;69529;37.974;23.708;2023-04-25T05:40:25;5.67;;;4.22;;
80209;SDS011;69529;37.974;23.708;2023-04-25T05:42:53;6.03;;;4.47;;
80209;SDS011;69529;37.974;23.708;2023-04-25T05:45:21;6.70;;;3.77;;
80209;SDS011;69529;37.974;23.708;2023-04-25T05:47:48;5.17;;;4.12;;
80209;SDS011;69529;37.974;23.708;2023-04-25T05:50:16;6.33;;;3.80;;
80209;SDS011;69529;37.974;23.708;2023-04-25T05:52:44;5.08;;;4.25;;
80209;SDS011;69529;37.974;23.708;2023-04-25T05:55:11;5.40;;;3.90;;
80209;SDS011;69529;37.974;23.708;2023-04-25T05:57:39;7.67;;;4.00;;
80209;SDS011;69529;37.974;23.708;2023-04-25T06:00:08;5.87;;;3.42;;
80209;SDS011;69529;37.974;23.708;2023-04-25T06:02:37;4.85;;;3.40;;
80209;SDS011;69529;37.974;23.708;2023-04-25T06:05:04;4.50;;;2.98;;
80209;SDS011;69529;37.974;23.708;2023-04-25T06:07:32;4.70;;;3.05;;
80209;SDS011;69529;37.974;23.708;2023-04-25T06:10:00;4.53;;;3.02;;
80209;SDS011;69529;37.974;23.708;2023-04-25T06:12:27;2.87;;;2.60;;
80209;SDS011;69529;37.974;23.708;2023-04-25T06:14:55;3.25;;;2.60;;
80209;SDS011;69529;37.974;23.708;2023-04-25T06:17:23;2.70;;;2.40;;
80209;SDS011;69529;37.974;23.708;2023-04-25T06:19:50;2.75;;;2.50;;
80209;SDS011;69529;37.974;23.708;2023-04-25T06:22:18;3.47;;;2.40;;
80209;SDS011;69529;37.974;23.708;2023-04-25T06:24:46;3.52;;;2.37;;
80209;SDS011;69529;37.974;23.708;2023-04-25T06:27:13;3.90;;;2.00;;
80209;SDS011;69529;37.974;23.708;2023-04-25T06:29:41;2.65;;;2.08;;
80209;SDS011;69529;37.974;23.708;2023-04-25T06:32:09;2.90;;;2.10;;
80209;SDS011;69529;37.974;23.708;2023-04-25T06:34:36;2.30;;;2.10;;
80209;SDS011;69529;37.974;23.708;2023-04-25T06:37:06;3.17;;;2.05;;
80209;SDS011;69529;37.974;23.708;2023-04-25T06:39:33;2.20;;;2.00;;
80209;SDS011;69529;37.974;23.708;2023-04-25T06:42:01;2.65;;;1.98;;
80209;SDS011;69529;37.974;23.708;2023-04-25T06:44:28;3.98;;;1.80;;
80209;SDS011;69529;37.974;23.708;2023-04-25T06:46:56;2.47;;;1.90;;
80209;SDS011;69529;37.974;23.708;2023-04-25T06:49:24;2.45;;;1.90;;
80209;SDS011;69529;37.974;23.708;2023-04-25T06:51:51;5.80;;;1.98;;
80209;SDS011;69529;37.974;23.708;2023-04-25T06:54:19;2.98;;;2.20;;
80209;SDS011;69529;37.974;23.708;2023-04-25T06:56:47;3.90;;;1.98;;
80209;SDS011;69529;37.974;23.708;2023-04-25T06:59:14;4.47;;;2.08;;
80209;SDS011;69529;37.974;23.708;2023-04-25T07:01:42;6.53;;;2.58;;
80209;SDS011;69529;37.974;23.708;2023-04-25T07:04:10;3.58;;;2.42;;
80209;SDS011;69529;37.974;23.708;2023-04-25T07:06:37;3.50;;;2.22;;
80209;SDS011;69529;37.974;23.708;2023-04-25T07:09:07;3.22;;;2.52;;
80209;SDS011;69529;37.974;23.708;2023-04-25T07:11:36;3.22;;;2.05;;
80209;SDS011;69529;37.974;23.708;2023-04-25T07:14:24;2.90;;;2.58;;
80209;SDS011;69529;37.974;23.708;2023-04-25T07:16:52;5.42;;;2.58;;
80209;SDS011;69529;37.974;23.708;2023-04-25T07:19:21;4.25;;;2.47;;
80209;SDS011;69529;37.974;23.708;2023-04-25T07:21:51;4.17;;;2.35;;
80209;SDS011;69529;37.974;23.708;2023-04-25T07:24:19;3.05;;;2.10;;
80209;SDS011;69529;37.974;23.708;2023-04-25T07:26:46;2.65;;;1.92;;
80209;SDS011;69529;37.974;23.708;2023-04-25T07:29:14;4.15;;;1.98;;
80209;SDS011;69529;37.974;23.708;2023-04-25T07:31:42;3.12;;;1.98;;
80209;SDS011;69529;37.974;23.708;2023-04-25T07:34:10;1.82;;;1.72;;
80209;SDS011;69529;37.974;23.708;2023-04-25T07:36:37;4.08;;;2.00;;
80209;SDS011;69529;37.974;23.708;2023-04-25T07:39:05;3.67;;;1.95;;
80209;SDS011;69529;37.974;23.708;2023-04-25T07:41:34;3.58;;;2.00;;
80209;SDS011;69529;37.974;23.708;2023-04-25T07:44:02;4.22;;;2.40;;
80209;SDS011;69529;37.974;23.708;2023-04-25T07:46:30;3.42;;;1.95;;
80209;SDS011;69529;37.974;23.708;2023-04-25T07:48:57;2.25;;;2.05;;
80209;SDS011;69529;37.974;23.708;2023-04-25T07:51:25;2.30;;;2.10;;
80209;SDS011;69529;37.974;23.708;2023-04-25T07:53:53;2.20;;;2.00;;
80209;SDS011;69529;37.974;23.708;2023-04-25T07:56:21;2.58;;;1.95;;
80209;SDS011;69529;37.974;23.708;2023-04-25T07:58:48;1.95;;;1.72;;
80209;SDS011;69529;37.974;23.708;2023-04-25T08:01:16;2.15;;;1.90;;
80209;SDS011;69529;37.974;23.708;2023-04-25T08:03:46;3.27;;;1.80;;
80209;SDS011;69529;37.974;23.708;2023-04-25T08:06:13;3.85;;;2.12;;
80209;SDS011;69529;37.974;23.708;2023-04-25T08:08:41;2.12;;;1.92;;
80209;SDS011;69529;37.974;23.708;2023-04-25T08:11:10;3.60;;;1.75;;
80209;SDS011;69529;37.974;23.708;2023-04-25T08:13:38;2.12;;;1.90;;
80209;SDS011;69529;37.974;23.708;2023-04-25T08:16:05;2.10;;;1.70;;
80209;SDS011;69529;37.974;23.708;2023-04-25T08:18:33;2.90;;;1.85;;
80209;SDS011;69529;37.974;23.708;2023-04-25T08:21:00;3.42;;;1.70;;
80209;SDS011;69529;37.974;23.708;2023-04-25T08:23:28;2.17;;;1.98;;
80209;SDS011;69529;37.974;23.708;2023-04-25T08:25:56;2.92;;;1.85;;
80209;SDS011;69529;37.974;23.708;2023-04-25T08:28:24;1.90;;;1.80;;
80209;SDS011;69529;37.974;23.708;2023-04-25T08:30:51;2.85;;;1.90;;
80209;SDS011;69529;37.974;23.708;2023-04-25T08:33:19;5.00;;;1.95;;
80209;SDS011;69529;37.974;23.708;2023-04-25T08:35:47;4.60;;;2.00;;
80209;SDS011;69529;37.974;23.708;2023-04-25T08:38:14;2.02;;;1.80;;
80209;SDS011;69529;37.974;23.708;2023-04-25T08:40:42;1.70;;;1.60;;
80209;SDS011;69529;37.974;23.708;2023-04-25T08:43:12;2.95;;;1.70;;
80209;SDS011;69529;37.974;23.708;2023-04-25T08:45:41;1.80;;;1.70;;
80209;SDS011;69529;37.974;23.708;2023-04-25T08:48:10;2.00;;;1.80;;
80209;SDS011;69529;37.974;23.708;2023-04-25T08:50:40;2.30;;;1.72;;
80209;SDS011;69529;37.974;23.708;2023-04-25T08:53:26;1.67;;;1.50;;
80209;SDS011;69529;37.974;23.708;2023-04-25T08:55:56;2.60;;;1.90;;
80209;SDS011;69529;37.974;23.708;2023-04-25T08:58:25;2.02;;;1.87;;
80209;SDS011;69529;37.974;23.708;2023-04-25T09:00:54;3.27;;;1.80;;
80209;SDS011;69529;37.974;23.708;2023-04-25T09:03:22;1.70;;;1.60;;
80209;SDS011;69529;37.974;23.708;2023-04-25T09:05:50;2.42;;;1.72;;
80209;SDS011;69529;37.974;23.708;2023-04-25T09:08:18;1.67;;;1.57;;
80209;SDS011;69529;37.974;23.708;2023-04-25T09:10:46;2.05;;;1.70;;
80209;SDS011;69529;37.974;23.708;2023-04-25T09:13:17;2.00;;;1.67;;
80209;SDS011;69529;37.974;23.708;2023-04-25T09:15:48;2.02;;;1.70;;
80209;SDS011;69529;37.974;23.708;2023-04-25T09:18:24;3.05;;;1.60;;
80209;SDS011;69529;37.974;23.708;2023-04-25T09:21:04;3.98;;;1.70;;
80209;SDS011;69529;37.974;23.708;2023-04-25T09:23:26;2.90;;;1.90;;
80209;SDS011;69529;37.974;23.708;2023-04-25T09:25:54;2.25;;;1.55;;
80209;SDS011;69529;37.974;23.708;2023-04-25T09:28:25;3.52;;;1.90;;
80209;SDS011;69529;37.974;23.708;2023-04-25T09:30:56;2.45;;;1.50;;
80209;SDS011;69529;37.974;23.708;2023-04-25T09:33:28;2.25;;;1.82;;
80209;SDS011;69529;37.974;23.708;2023-04-25T09:36:07;4.33;;;2.12;;
80209;SDS011;69529;37.974;23.708;2023-04-25T09:41:12;3.27;;;2.20;;
80209;SDS011;69529;37.974;23.708;2023-04-25T09:43:40;2.80;;;2.35;;
80209;SDS011;69529;37.974;23.708;2023-04-25T09:46:11;2.58;;;2.25;;
80209;SDS011;69529;37.974;23.708;2023-04-25T09:48:39;2.65;;;2.45;;
80209;SDS011;69529;37.974;23.708;2023-04-25T09:51:10;2.72;;;1.98;;
80209;SDS011;69529;37.974;23.708;2023-04-25T09:53:45;5.50;;;2.42;;
80209;SDS011;69529;37.974;23.708;2023-04-25T09:56:15;2.62;;;2.20;;
80209;SDS011;69529;37.974;23.708;2023-04-25T09:58:42;4.17;;;1.90;;
80209;SDS011;69529;37.974;23.708;2023-04-25T10:01:10;2.12;;;2.02;;
80209;SDS011;69529;37.974;23.708;2023-04-25T10:03:39;3.87;;;2.22;;
80209;SDS011;69529;37.974;23.708;2023-04-25T10:06:12;2.77;;;2.00;;
80209;SDS011;69529;37.974;23.708;2023-04-25T10:08:41;2.65;;;2.12;;
80209;SDS011;69529;37.974;23.708;2023-04-25T10:11:09;2.08;;;1.77;;
80209;SDS011;69529;37.974;23.708;2023-04-25T10:13:39;2.67;;;2.08;;
80209;SDS011;69529;37.974;23.708;2023-04-25T10:16:08;4.17;;;2.02;;
80209;SDS011;69529;37.974;23.708;2023-04-25T10:18:36;2.37;;;1.80;;
80209;SDS011;69529;37.974;23.708;2023-04-25T10:21:04;2.08;;;1.92;;
80209;SDS011;69529;37.974;23.708;2023-04-25T10:23:32;3.02;;;2.05;;
80209;SDS011;69529;37.974;23.708;2023-04-25T10:26:00;3.87;;;1.98;;
80209;SDS011;69529;37.974;23.708;2023-04-25T10:28:28;2.17;;;1.80;;
80209;SDS011;69529;37.974;23.708;2023-04-25T10:33:35;1.98;;;1.82;;
80209;SDS011;69529;37.974;23.708;2023-04-25T10:38:45;3.25;;;2.17;;
80209;SDS011;69529;37.974;23.708;2023-04-25T10:41:11;4.75;;;2.08;;
80209;SDS011;69529;37.974;23.708;2023-04-25T10:43:48;4.55;;;2.20;;
80209;SDS011;69529;37.974;23.708;2023-04-25T10:46:18;4.05;;;2.37;;
80209;SDS011;69529;37.974;23.708;2023-04-25T10:48:54;4.05;;;2.33;;
80209;SDS011;69529;37.974;23.708;2023-04-25T10:51:26;3.02;;;2.30;;
80209;SDS011;69529;37.974;23.708;2023-04-25T10:54:01;3.00;;;2.10;;
80209;SDS011;69529;37.974;23.708;2023-04-25T10:56:36;2.52;;;2.00;;
80209;SDS011;69529;37.974;23.708;2023-04-25T10:59:12;2.72;;;2.17;;
80209;SDS011;69529;37.974;23.708;2023-04-25T11:01:48;2.47;;;2.25;;
80209;SDS011;69529;37.974;23.708;2023-04-25T11:09:34;3.85;;;2.12;;
80209;SDS011;69529;37.974;23.708;2023-04-25T11:12:02;2.10;;;1.95;;
80209;SDS011;69529;37.974;23.708;2023-04-25T11:14:31;4.47;;;2.00;;
80209;SDS011;69529;37.974;23.708;2023-04-25T11:16:59;6.72;;;2.22;;
80209;SDS011;69529;37.974;23.708;2023-04-25T11:19:30;1.90;;;1.80;;
80209;SDS011;69529;37.974;23.708;2023-04-25T11:21:58;3.40;;;1.90;;
80209;SDS011;69529;37.974;23.708;2023-04-25T11:24:30;1.62;;;1.52;;
80209;SDS011;69529;37.974;23.708;2023-04-25T11:27:00;4.08;;;1.70;;
80209;SDS011;69529;37.974;23.708;2023-04-25T11:29:30;3.92;;;2.00;;
80209;SDS011;69529;37.974;23.708;2023-04-25T11:31:58;3.00;;;1.67;;
80209;SDS011;69529;37.974;23.708;2023-04-25T11:34:27;2.60;;;1.72;;
80209;SDS011;69529;37.974;23.708;2023-04-25T11:36:58;4.03;;;1.87;;
80209;SDS011;69529;37.974;23.708;2023-04-25T11:39:27;2.30;;;2.10;;
80209;SDS011;69529;37.974;23.708;2023-04-25T11:41:55;3.47;;;1.90;;
80209;SDS011;69529;37.974;23.708;2023-04-25T11:44:23;1.80;;;1.70;;
80209;SDS011;69529;37.974;23.708;2023-04-25T11:46:52;2.60;;;1.80;;
80209;SDS011;69529;37.974;23.708;2023-04-25T11:49:19;1.98;;;1.77;;
80209;SDS011;69529;37.974;23.708;2023-04-25T11:51:48;2.17;;;1.75;;
80209;SDS011;69529;37.974;23.708;2023-04-25T11:54:16;2.27;;;1.82;;
80209;SDS011;69529;37.974;23.708;2023-04-25T11:56:44;2.02;;;1.80;;
80209;SDS011;69529;37.974;23.708;2023-04-25T11:59:12;5.58;;;1.90;;
80209;SDS011;69529;37.974;23.708;2023-04-25T12:01:41;5.72;;;2.00;;
80209;SDS011;69529;37.974;23.708;2023-04-25T12:04:14;2.45;;;1.70;;
80209;SDS011;69529;37.974;23.708;2023-04-25T12:06:43;1.85;;;1.60;;
80209;SDS011;69529;37.974;23.708;2023-04-25T12:09:14;3.20;;;1.70;;
80209;SDS011;69529;37.974;23.708;2023-04-25T12:11:47;1.90;;;1.70;;
80209;SDS011;69529;37.974;23.708;2023-04-25T12:14:21;1.80;;;1.70;;
80209;SDS011;69529;37.974;23.708;2023-04-25T12:16:54;2.40;;;1.62;;
80209;SDS011;69529;37.974;23.708;2023-04-25T12:19:23;2.07;;;1.70;;
80209;SDS011;69529;37.974;23.708;2023-04-25T12:21:51;3.83;;;1.72;;
80209;SDS011;69529;37.974;23.708;2023-04-25T12:24:22;2.37;;;2.10;;
80209;SDS011;69529;37.974;23.708;2023-04-25T12:26:52;4.50;;;2.37;;
80209;SDS011;69529;37.974;23.708;2023-04-25T12:29:22;3.35;;;2.40;;
80209;SDS011;69529;37.974;23.708;2023-04-25T12:31:51;2.42;;;2.12;;
80209;SDS011;69529;37.974;23.708;2023-04-25T12:34:20;3.08;;;2.30;;
80209;SDS011;69529;37.974;23.708;2023-04-25T12:36:49;2.72;;;2.10;;
80209;SDS011;69529;37.974;23.708;2023-04-25T12:39:18;2.90;;;1.75;;
80209;SDS011;69529;37.974;23.708;2023-04-25T12:41:48;3.77;;;1.87;;
80209;SDS011;69529;37.974;23.708;2023-04-25T12:44:16;3.08;;;2.00;;
80209;SDS011;69529;37.974;23.708;2023-04-25T12:46:43;2.47;;;1.80;;
80209;SDS011;69529;37.974;23.708;2023-04-25T12:49:11;2.05;;;1.80;;
80209;SDS011;69529;37.974;23.708;2023-04-25T12:51:39;2.30;;;1.98;;
80209;SDS011;69529;37.974;23.708;2023-04-25T12:56:42;2.72;;;1.80;;
80209;SDS011;69529;37.974;23.708;2023-04-25T12:59:10;2.45;;;2.00;;
80209;SDS011;69529;37.974;23.708;2023-04-25T13:01:38;2.20;;;1.70;;
80209;SDS011;69529;37.974;23.708;2023-04-25T13:04:06;3.85;;;1.72;;
80209;SDS011;69529;37.974;23.708;2023-04-25T13:06:35;3.12;;;1.77;;
80209;SDS011;69529;37.974;23.708;2023-04-25T13:09:03;2.65;;;1.80;;
80209;SDS011;69529;37.974;23.708;2023-04-25T13:11:30;1.90;;;1.67;;
80209;SDS011;69529;37.974;23.708;2023-04-25T13:13:58;1.95;;;1.57;;
80209;SDS011;69529;37.974;23.708;2023-04-25T13:16:26;2.72;;;1.70;;
80209;SDS011;69529;37.974;23.708;2023-04-25T13:18:53;2.65;;;1.72;;
80209;SDS011;69529;37.974;23.708;2023-04-25T13:21:22;4.12;;;2.10;;
80209;SDS011;69529;37.974;23.708;2023-04-25T13:23:49;2.75;;;2.42;;
80209;SDS011;69529;37.974;23.708;2023-04-25T13:26:17;2.35;;;2.15;;
80209;SDS011;69529;37.974;23.708;2023-04-25T13:28:45;4.10;;;2.17;;
80209;SDS011;69529;37.974;23.708;2023-04-25T13:31:13;2.55;;;2.00;;
80209;SDS011;69529;37.974;23.708;2023-04-25T13:33:41;3.67;;;2.08;;
80209;SDS011;69529;37.974;23.708;2023-04-25T13:36:10;3.55;;;2.25;;
80209;SDS011;69529;37.974;23.708;2023-04-25T13:38:37;2.98;;;2.02;;
80209;SDS011;69529;37.974;23.708;2023-04-25T13:41:07;2.05;;;1.85;;
80209;SDS011;69529;37.974;23.708;2023-04-25T13:43:36;2.83;;;2.00;;
80209;SDS011;69529;37.974;23.708;2023-04-25T13:46:04;3.50;;;2.12;;
80209;SDS011;69529;37.974;23.708;2023-04-25T13:48:33;2.95;;;2.00;;
80209;SDS011;69529;37.974;23.708;2023-04-25T13:51:02;2.12;;;1.90;;
80209;SDS011;69529;37.974;23.708;2023-04-25T13:53:31;2.33;;;2.12;;
80209;SDS011;69529;37.974;23.708;2023-04-25T13:56:00;2.33;;;1.80;;
80209;SDS011;69529;37.974;23.708;2023-04-25T13:58:28;2.45;;;2.08;;
80209;SDS011;69529;37.974;23.708;2023-04-25T14:00:56;1.82;;;1.72;;
80209;SDS011;69529;37.974;23.708;2023-04-25T14:03:24;3.50;;;1.70;;
80209;SDS011;69529;37.974;23.708;2023-04-25T14:05:52;4.15;;;1.80;;
80209;SDS011;69529;37.974;23.708;2023-04-25T14:08:20;2.00;;;1.90;;
80209;SDS011;69529;37.974;23.708;2023-04-25T14:10:47;1.75;;;1.62;;
80209;SDS011;69529;37.974;23.708;2023-04-25T14:13:15;1.67;;;1.57;;
80209;SDS011;69529;37.974;23.708;2023-04-25T14:15:43;2.52;;;1.70;;
80209;SDS011;69529;37.974;23.708;2023-04-25T14:18:11;1.87;;;1.60;;
80209;SDS011;69529;37.974;23.708;2023-04-25T14:20:42;2.23;;;2.00;;
80209;SDS011;69529;37.974;23.708;2023-04-25T14:23:10;2.52;;;2.33;;
80209;SDS011;69529;37.974;23.708;2023-04-25T14:25:37;2.00;;;1.90;;
80209;SDS011;69529;37.974;23.708;2023-04-25T14:28:05;2.15;;;2.05;;
80209;SDS011;69529;37.974;23.708;2023-04-25T14:30:33;3.45;;;2.30;;
80209;SDS011;69529;37.974;23.708;2023-04-25T14:33:01;3.45;;;2.20;;
80209;SDS011;69529;37.974;23.708;2023-04-25T14:35:29;2.25;;;2.05;;
80209;SDS011;69529;37.974;23.708;2023-04-25T14:37:56;5.15;;;2.30;;
80209;SDS011;69529;37.974;23.708;2023-04-25T14:40:25;2.27;;;1.90;;
80209;SDS011;69529;37.974;23.708;2023-04-25T14:42:53;2.30;;;2.15;;
80209;SDS011;69529;37.974;23.708;2023-04-25T14:45:20;2.45;;;2.25;;
80209;SDS011;69529;37.974;23.708;2023-04-25T14:47:48;2.27;;;2.08;;
80209;SDS011;69529;37.974;23.708;2023-04-25T14:50:16;2.02;;;1.82;;
80209;SDS011;69529;37.974;23.708;2023-04-25T14:52:43;3.45;;;2.00;;
80209;SDS011;69529;37.974;23.708;2023-04-25T14:55:11;1.90;;;1.80;;